sensor_id;sensor_type;location;lat;lon;timestamp;P1;durP1;ratioP1;P2;durP2;ratioP2
39874;SDS011;25547;52.530;13.194;2023-01-23T00:01:26;16.77;;;7.82;;
39874;SDS011;25547;52.530;13.194;2023-01-23T00:03:54;15.27;;;7.65;;
39874;SDS011;25547;52.530;13.194;2023-01-23T00:06:23;14.23;;;7.45;;
39874;SDS011;25547;52.530;13.194;2023-01-23T00:08:49;13.60;;;7.07;;
39874;SDS011;25547;52.530;13.194;2023-01-23T00:11:15;14.23;;;7.28;;
39874;SDS011;25547;52.530;13.194;2023-01-23T00:13:42;14.10;;;7.82;;
39874;SDS011;25547;52.530;13.194;2023-01-23T00:16:28;15.52;;;8.27;;
39874;SDS011;25547;52.530;13.194;2023-01-23T00:18:56;16.40;;;7.53;;
39874;SDS011;25547;52.530;13.194;2023-01-23T00:21:23;15.13;;;7.35;;
39874;SDS011;25547;52.530;13.194;2023-01-23T00:23:52;16.15;;;8.82;;
39874;SDS011;25547;52.530;13.194;2023-01-23T00:26:23;17.15;;;8.15;;
39874;SDS011;25547;52.530;13.194;2023-01-23T00:28:50;16.83;;;8.65;;
39874;SDS011;25547;52.530;13.194;2023-01-23T00:31:20;21.77;;;9.75;;
39874;SDS011;25547;52.530;13.194;2023-01-23T00:33:51;17.35;;;8.35;;
39874;SDS011;25547;52.530;13.194;2023-01-23T00:36:21;17.70;;;7.93;;
39874;SDS011;25547;52.530;13.194;2023-01-23T00:38:48;18.52;;;9.35;;
39874;SDS011;25547;52.530;13.194;2023-01-23T00:41:13;22.80;;;9.75;;
39874;SDS011;25547;52.530;13.194;2023-01-23T00:43:41;20.85;;;10.05;;
39874;SDS011;25547;52.530;13.194;2023-01-23T00:46:07;16.10;;;8.25;;
39874;SDS011;25547;52.530;13.194;2023-01-23T00:48:32;16.15;;;7.93;;
39874;SDS011;25547;52.530;13.194;2023-01-23T00:50:58;18.40;;;7.75;;
39874;SDS011;25547;52.530;13.194;2023-01-23T00:53:26;21.20;;;10.82;;
39874;SDS011;25547;52.530;13.194;2023-01-23T00:55:54;22.08;;;8.43;;
39874;SDS011;25547;52.530;13.194;2023-01-23T00:58:19;18.13;;;8.35;;
39874;SDS011;25547;52.530;13.194;2023-01-23T01:00:48;15.20;;;8.57;;
39874;SDS011;25547;52.530;13.194;2023-01-23T01:03:16;15.77;;;7.53;;
39874;SDS011;25547;52.530;13.194;2023-01-23T01:05:43;14.57;;;8.05;;
39874;SDS011;25547;52.530;13.194;2023-01-23T01:08:11;19.10;;;9.48;;
39874;SDS011;25547;52.530;13.194;2023-01-23T01:10:40;19.85;;;8.52;;
39874;SDS011;25547;52.530;13.194;2023-01-23T01:13:06;18.38;;;9.00;;
39874;SDS011;25547;52.530;13.194;2023-01-23T01:15:34;17.70;;;8.82;;
39874;SDS011;25547;52.530;13.194;2023-01-23T01:18:01;18.02;;;8.63;;
39874;SDS011;25547;52.530;13.194;2023-01-23T01:20:27;16.30;;;8.18;;
39874;SDS011;25547;52.530;13.194;2023-01-23T01:22:56;16.63;;;8.32;;
39874;SDS011;25547;52.530;13.194;2023-01-23T01:25:22;19.63;;;8.73;;
39874;SDS011;25547;52.530;13.194;2023-01-23T01:27:48;16.40;;;7.95;;
39874;SDS011;25547;52.530;13.194;2023-01-23T01:30:17;17.80;;;8.05;;
39874;SDS011;25547;52.530;13.194;2023-01-23T01:32:43;15.70;;;7.65;;
39874;SDS011;25547;52.530;13.194;2023-01-23T01:35:09;17.65;;;8.52;;
39874;SDS011;25547;52.530;13.194;2023-01-23T01:37:38;16.58;;;8.00;;
39874;SDS011;25547;52.530;13.194;2023-01-23T01:40:08;18.83;;;9.15;;
39874;SDS011;25547;52.530;13.194;2023-01-23T01:42:58;15.48;;;8.63;;
39874;SDS011;25547;52.530;13.194;2023-01-23T01:51:10;18.33;;;8.60;;
39874;SDS011;25547;52.530;13.194;2023-01-23T01:53:41;21.83;;;9.18;;
39874;SDS011;25547;52.530;13.194;2023-01-23T01:56:13;20.92;;;9.27;;
39874;SDS011;25547;52.530;13.194;2023-01-23T01:58:41;16.10;;;9.27;;
39874;SDS011;25547;52.530;13.194;2023-01-23T02:01:12;19.27;;;9.18;;
39874;SDS011;25547;52.530;13.194;2023-01-23T02:03:38;16.42;;;8.60;;
39874;SDS011;25547;52.530;13.194;2023-01-23T02:06:04;21.77;;;9.32;;
39874;SDS011;25547;52.530;13.194;2023-01-23T02:08:35;16.00;;;9.20;;
39874;SDS011;25547;52.530;13.194;2023-01-23T02:11:15;16.45;;;8.93;;
39874;SDS011;25547;52.530;13.194;2023-01-23T02:13:42;21.10;;;9.45;;
39874;SDS011;25547;52.530;13.194;2023-01-23T02:16:19;21.58;;;10.32;;
39874;SDS011;25547;52.530;13.194;2023-01-23T02:18:49;20.58;;;9.45;;
39874;SDS011;25547;52.530;13.194;2023-01-23T02:21:20;19.48;;;9.70;;
39874;SDS011;25547;52.530;13.194;2023-01-23T02:26:20;21.27;;;9.88;;
39874;SDS011;25547;52.530;13.194;2023-01-23T02:29:03;20.63;;;9.73;;
39874;SDS011;25547;52.530;13.194;2023-01-23T02:31:31;20.23;;;9.50;;
39874;SDS011;25547;52.530;13.194;2023-01-23T02:33:59;16.77;;;8.40;;
39874;SDS011;25547;52.530;13.194;2023-01-23T02:36:29;20.00;;;8.80;;
39874;SDS011;25547;52.530;13.194;2023-01-23T02:41:37;19.63;;;9.43;;
39874;SDS011;25547;52.530;13.194;2023-01-23T02:44:46;21.95;;;10.15;;
39874;SDS011;25547;52.530;13.194;2023-01-23T02:47:02;19.58;;;9.25;;
39874;SDS011;25547;52.530;13.194;2023-01-23T02:49:38;22.83;;;9.75;;
39874;SDS011;25547;52.530;13.194;2023-01-23T02:52:04;20.85;;;10.45;;
39874;SDS011;25547;52.530;13.194;2023-01-23T02:54:31;25.30;;;11.82;;
39874;SDS011;25547;52.530;13.194;2023-01-23T02:56:57;21.40;;;9.48;;
39874;SDS011;25547;52.530;13.194;2023-01-23T02:59:23;19.38;;;9.98;;
39874;SDS011;25547;52.530;13.194;2023-01-23T03:02:07;20.77;;;9.07;;
39874;SDS011;25547;52.530;13.194;2023-01-23T03:04:33;25.75;;;10.70;;
39874;SDS011;25547;52.530;13.194;2023-01-23T03:07:01;24.60;;;11.70;;
39874;SDS011;25547;52.530;13.194;2023-01-23T03:09:29;19.83;;;9.27;;
39874;SDS011;25547;52.530;13.194;2023-01-23T03:11:54;24.08;;;11.40;;
39874;SDS011;25547;52.530;13.194;2023-01-23T03:14:21;23.95;;;10.63;;
39874;SDS011;25547;52.530;13.194;2023-01-23T03:16:47;24.75;;;10.05;;
39874;SDS011;25547;52.530;13.194;2023-01-23T03:19:18;22.97;;;9.93;;
39874;SDS011;25547;52.530;13.194;2023-01-23T03:21:45;24.00;;;9.85;;
39874;SDS011;25547;52.530;13.194;2023-01-23T03:24:13;22.02;;;10.68;;
39874;SDS011;25547;52.530;13.194;2023-01-23T03:26:40;21.52;;;10.13;;
39874;SDS011;25547;52.530;13.194;2023-01-23T03:29:07;19.38;;;9.50;;
39874;SDS011;25547;52.530;13.194;2023-01-23T03:31:55;20.75;;;11.30;;
39874;SDS011;25547;52.530;13.194;2023-01-23T03:34:21;19.05;;;9.32;;
39874;SDS011;25547;52.530;13.194;2023-01-23T03:36:46;24.48;;;10.00;;
39874;SDS011;25547;52.530;13.194;2023-01-23T03:39:12;19.00;;;9.07;;
39874;SDS011;25547;52.530;13.194;2023-01-23T03:41:56;24.70;;;10.65;;
39874;SDS011;25547;52.530;13.194;2023-01-23T03:44:26;21.45;;;9.52;;
39874;SDS011;25547;52.530;13.194;2023-01-23T03:46:52;22.70;;;10.65;;
39874;SDS011;25547;52.530;13.194;2023-01-23T03:49:18;21.00;;;10.45;;
39874;SDS011;25547;52.530;13.194;2023-01-23T03:51:44;23.35;;;9.82;;
39874;SDS011;25547;52.530;13.194;2023-01-23T03:54:12;19.85;;;10.02;;
39874;SDS011;25547;52.530;13.194;2023-01-23T03:56:39;19.23;;;9.77;;
39874;SDS011;25547;52.530;13.194;2023-01-23T03:59:05;21.27;;;10.85;;
39874;SDS011;25547;52.530;13.194;2023-01-23T04:01:31;23.73;;;10.68;;
39874;SDS011;25547;52.530;13.194;2023-01-23T04:03:56;21.63;;;8.88;;
39874;SDS011;25547;52.530;13.194;2023-01-23T04:06:22;22.27;;;9.93;;
39874;SDS011;25547;52.530;13.194;2023-01-23T04:08:51;19.55;;;9.00;;
39874;SDS011;25547;52.530;13.194;2023-01-23T04:11:17;22.30;;;9.95;;
39874;SDS011;25547;52.530;13.194;2023-01-23T04:13:44;20.05;;;8.73;;
39874;SDS011;25547;52.530;13.194;2023-01-23T04:16:12;18.88;;;9.80;;
39874;SDS011;25547;52.530;13.194;2023-01-23T04:18:38;22.45;;;9.90;;
39874;SDS011;25547;52.530;13.194;2023-01-23T04:21:04;24.02;;;11.10;;
39874;SDS011;25547;52.530;13.194;2023-01-23T04:23:30;21.75;;;10.88;;
39874;SDS011;25547;52.530;13.194;2023-01-23T04:25:56;20.58;;;10.68;;
39874;SDS011;25547;52.530;13.194;2023-01-23T04:28:24;21.30;;;10.52;;
39874;SDS011;25547;52.530;13.194;2023-01-23T04:30:50;19.60;;;10.00;;
39874;SDS011;25547;52.530;13.194;2023-01-23T04:33:16;21.15;;;10.40;;
39874;SDS011;25547;52.530;13.194;2023-01-23T04:36:03;17.00;;;9.20;;
39874;SDS011;25547;52.530;13.194;2023-01-23T04:38:33;25.20;;;9.82;;
39874;SDS011;25547;52.530;13.194;2023-01-23T04:40:59;21.45;;;10.45;;
39874;SDS011;25547;52.530;13.194;2023-01-23T04:43:24;26.27;;;10.57;;
39874;SDS011;25547;52.530;13.194;2023-01-23T04:45:52;25.75;;;12.90;;
39874;SDS011;25547;52.530;13.194;2023-01-23T04:48:20;21.25;;;10.85;;
39874;SDS011;25547;52.530;13.194;2023-01-23T04:50:47;22.63;;;10.45;;
39874;SDS011;25547;52.530;13.194;2023-01-23T04:53:13;22.52;;;10.82;;
39874;SDS011;25547;52.530;13.194;2023-01-23T04:55:39;24.40;;;10.57;;
39874;SDS011;25547;52.530;13.194;2023-01-23T04:58:09;19.65;;;10.70;;
39874;SDS011;25547;52.530;13.194;2023-01-23T05:00:35;25.40;;;12.50;;
39874;SDS011;25547;52.530;13.194;2023-01-23T05:03:02;23.75;;;11.65;;
39874;SDS011;25547;52.530;13.194;2023-01-23T05:05:27;21.67;;;10.52;;
39874;SDS011;25547;52.530;13.194;2023-01-23T05:07:53;21.48;;;10.85;;
39874;SDS011;25547;52.530;13.194;2023-01-23T05:10:18;23.92;;;10.88;;
39874;SDS011;25547;52.530;13.194;2023-01-23T05:12:44;20.60;;;10.30;;
39874;SDS011;25547;52.530;13.194;2023-01-23T05:15:12;25.45;;;11.70;;
39874;SDS011;25547;52.530;13.194;2023-01-23T05:20:09;24.10;;;11.60;;
39874;SDS011;25547;52.530;13.194;2023-01-23T05:22:35;26.38;;;14.13;;
39874;SDS011;25547;52.530;13.194;2023-01-23T05:25:00;20.27;;;10.68;;
39874;SDS011;25547;52.530;13.194;2023-01-23T05:27:29;24.38;;;10.45;;
39874;SDS011;25547;52.530;13.194;2023-01-23T05:29:54;27.33;;;11.95;;
39874;SDS011;25547;52.530;13.194;2023-01-23T05:32:22;32.75;;;14.68;;
39874;SDS011;25547;52.530;13.194;2023-01-23T05:34:48;28.67;;;12.70;;
39874;SDS011;25547;52.530;13.194;2023-01-23T05:37:13;26.25;;;11.13;;
39874;SDS011;25547;52.530;13.194;2023-01-23T05:39:39;61.90;;;24.83;;
39874;SDS011;25547;52.530;13.194;2023-01-23T05:42:07;40.17;;;15.07;;
39874;SDS011;25547;52.530;13.194;2023-01-23T05:44:32;41.10;;;18.20;;
39874;SDS011;25547;52.530;13.194;2023-01-23T05:46:58;30.85;;;13.63;;
39874;SDS011;25547;52.530;13.194;2023-01-23T05:49:24;29.65;;;12.77;;
39874;SDS011;25547;52.530;13.194;2023-01-23T05:51:49;27.83;;;12.75;;
39874;SDS011;25547;52.530;13.194;2023-01-23T05:54:15;32.30;;;13.35;;
39874;SDS011;25547;52.530;13.194;2023-01-23T05:56:40;30.67;;;14.23;;
39874;SDS011;25547;52.530;13.194;2023-01-23T05:59:06;25.70;;;12.35;;
39874;SDS011;25547;52.530;13.194;2023-01-23T06:01:35;25.27;;;13.00;;
39874;SDS011;25547;52.530;13.194;2023-01-23T06:04:01;29.00;;;12.50;;
39874;SDS011;25547;52.530;13.194;2023-01-23T06:06:26;27.20;;;12.32;;
39874;SDS011;25547;52.530;13.194;2023-01-23T06:08:52;26.13;;;12.63;;
39874;SDS011;25547;52.530;13.194;2023-01-23T06:11:18;26.83;;;11.93;;
39874;SDS011;25547;52.530;13.194;2023-01-23T06:13:43;30.92;;;13.35;;
39874;SDS011;25547;52.530;13.194;2023-01-23T06:16:09;27.05;;;12.57;;
39874;SDS011;25547;52.530;13.194;2023-01-23T06:18:37;26.70;;;11.02;;
39874;SDS011;25547;52.530;13.194;2023-01-23T06:21:02;29.55;;;13.02;;
39874;SDS011;25547;52.530;13.194;2023-01-23T06:23:33;27.45;;;12.32;;
39874;SDS011;25547;52.530;13.194;2023-01-23T06:26:01;21.77;;;9.82;;
39874;SDS011;25547;52.530;13.194;2023-01-23T06:28:27;24.90;;;12.48;;
39874;SDS011;25547;52.530;13.194;2023-01-23T06:30:53;26.23;;;12.75;;
39874;SDS011;25547;52.530;13.194;2023-01-23T06:33:19;44.53;;;20.33;;
39874;SDS011;25547;52.530;13.194;2023-01-23T06:35:44;28.17;;;12.23;;
39874;SDS011;25547;52.530;13.194;2023-01-23T06:38:10;25.60;;;10.70;;
39874;SDS011;25547;52.530;13.194;2023-01-23T06:40:35;22.33;;;11.05;;
39874;SDS011;25547;52.530;13.194;2023-01-23T06:43:03;26.25;;;11.98;;
39874;SDS011;25547;52.530;13.194;2023-01-23T06:45:31;29.55;;;12.77;;
39874;SDS011;25547;52.530;13.194;2023-01-23T06:47:59;25.25;;;11.40;;
39874;SDS011;25547;52.530;13.194;2023-01-23T06:50:24;29.85;;;13.93;;
39874;SDS011;25547;52.530;13.194;2023-01-23T06:52:55;33.85;;;15.50;;
39874;SDS011;25547;52.530;13.194;2023-01-23T06:55:23;28.95;;;13.05;;
39874;SDS011;25547;52.530;13.194;2023-01-23T06:57:53;69.95;;;29.65;;
39874;SDS011;25547;52.530;13.194;2023-01-23T07:00:21;30.75;;;12.95;;
39874;SDS011;25547;52.530;13.194;2023-01-23T07:02:47;33.80;;;13.15;;
39874;SDS011;25547;52.530;13.194;2023-01-23T07:05:13;32.10;;;14.55;;
39874;SDS011;25547;52.530;13.194;2023-01-23T07:07:39;29.10;;;12.38;;
39874;SDS011;25547;52.530;13.194;2023-01-23T07:10:07;25.13;;;12.63;;
39874;SDS011;25547;52.530;13.194;2023-01-23T07:12:36;28.42;;;14.07;;
39874;SDS011;25547;52.530;13.194;2023-01-23T07:15:02;31.42;;;12.95;;
39874;SDS011;25547;52.530;13.194;2023-01-23T07:17:28;24.65;;;12.20;;
39874;SDS011;25547;52.530;13.194;2023-01-23T07:19:54;22.95;;;10.43;;
39874;SDS011;25547;52.530;13.194;2023-01-23T07:22:20;22.35;;;9.88;;
39874;SDS011;25547;52.530;13.194;2023-01-23T07:24:46;21.83;;;11.02;;
39874;SDS011;25547;52.530;13.194;2023-01-23T07:27:17;20.50;;;10.43;;
39874;SDS011;25547;52.530;13.194;2023-01-23T07:29:42;22.33;;;10.85;;
39874;SDS011;25547;52.530;13.194;2023-01-23T07:32:08;26.75;;;11.52;;
39874;SDS011;25547;52.530;13.194;2023-01-23T07:34:34;25.58;;;11.23;;
39874;SDS011;25547;52.530;13.194;2023-01-23T07:37:00;18.85;;;9.68;;
39874;SDS011;25547;52.530;13.194;2023-01-23T07:39:27;22.65;;;11.80;;
39874;SDS011;25547;52.530;13.194;2023-01-23T07:41:55;24.83;;;11.73;;
39874;SDS011;25547;52.530;13.194;2023-01-23T07:44:21;26.02;;;12.93;;
39874;SDS011;25547;52.530;13.194;2023-01-23T07:46:47;23.80;;;11.82;;
39874;SDS011;25547;52.530;13.194;2023-01-23T07:49:13;30.10;;;12.25;;
39874;SDS011;25547;52.530;13.194;2023-01-23T07:51:39;24.35;;;12.18;;
39874;SDS011;25547;52.530;13.194;2023-01-23T07:54:09;21.88;;;10.95;;
39874;SDS011;25547;52.530;13.194;2023-01-23T07:56:38;23.08;;;11.18;;
39874;SDS011;25547;52.530;13.194;2023-01-23T07:59:05;21.98;;;12.75;;
39874;SDS011;25547;52.530;13.194;2023-01-23T08:01:31;24.73;;;10.90;;
39874;SDS011;25547;52.530;13.194;2023-01-23T08:03:59;26.55;;;12.15;;
39874;SDS011;25547;52.530;13.194;2023-01-23T08:06:24;26.42;;;10.85;;
39874;SDS011;25547;52.530;13.194;2023-01-23T08:08:52;19.73;;;10.30;;
39874;SDS011;25547;52.530;13.194;2023-01-23T08:11:18;28.85;;;13.07;;
39874;SDS011;25547;52.530;13.194;2023-01-23T08:13:47;24.30;;;10.82;;
39874;SDS011;25547;52.530;13.194;2023-01-23T08:16:13;24.35;;;11.93;;
39874;SDS011;25547;52.530;13.194;2023-01-23T08:18:39;23.40;;;10.32;;
39874;SDS011;25547;52.530;13.194;2023-01-23T08:21:04;25.63;;;11.85;;
39874;SDS011;25547;52.530;13.194;2023-01-23T08:23:32;25.77;;;11.35;;
39874;SDS011;25547;52.530;13.194;2023-01-23T08:26:02;23.98;;;11.70;;
39874;SDS011;25547;52.530;13.194;2023-01-23T08:28:29;24.33;;;11.45;;
39874;SDS011;25547;52.530;13.194;2023-01-23T08:31:01;31.77;;;13.63;;
39874;SDS011;25547;52.530;13.194;2023-01-23T08:33:29;27.15;;;12.40;;
39874;SDS011;25547;52.530;13.194;2023-01-23T08:35:55;24.25;;;11.13;;
39874;SDS011;25547;52.530;13.194;2023-01-23T08:38:24;28.15;;;12.63;;
39874;SDS011;25547;52.530;13.194;2023-01-23T08:40:57;28.23;;;12.90;;
39874;SDS011;25547;52.530;13.194;2023-01-23T08:43:24;27.65;;;12.27;;
39874;SDS011;25547;52.530;13.194;2023-01-23T08:45:51;26.80;;;11.60;;
39874;SDS011;25547;52.530;13.194;2023-01-23T08:48:21;28.90;;;13.52;;
39874;SDS011;25547;52.530;13.194;2023-01-23T08:50:56;44.83;;;20.15;;
39874;SDS011;25547;52.530;13.194;2023-01-23T08:53:44;26.52;;;13.02;;
39874;SDS011;25547;52.530;13.194;2023-01-23T08:56:14;27.98;;;12.25;;
39874;SDS011;25547;52.530;13.194;2023-01-23T08:58:41;26.73;;;12.23;;
39874;SDS011;25547;52.530;13.194;2023-01-23T09:01:23;22.38;;;10.90;;
39874;SDS011;25547;52.530;13.194;2023-01-23T09:03:52;26.23;;;11.38;;
39874;SDS011;25547;52.530;13.194;2023-01-23T09:06:19;24.75;;;11.57;;
39874;SDS011;25547;52.530;13.194;2023-01-23T09:08:47;25.75;;;10.90;;
39874;SDS011;25547;52.530;13.194;2023-01-23T09:11:13;28.23;;;11.48;;
39874;SDS011;25547;52.530;13.194;2023-01-23T09:13:51;24.67;;;11.68;;
39874;SDS011;25547;52.530;13.194;2023-01-23T09:16:17;21.23;;;10.52;;
39874;SDS011;25547;52.530;13.194;2023-01-23T09:18:43;25.98;;;12.63;;
39874;SDS011;25547;52.530;13.194;2023-01-23T09:21:12;32.40;;;14.35;;
39874;SDS011;25547;52.530;13.194;2023-01-23T09:23:41;27.88;;;14.05;;
39874;SDS011;25547;52.530;13.194;2023-01-23T09:26:08;27.60;;;13.43;;
39874;SDS011;25547;52.530;13.194;2023-01-23T09:28:36;30.30;;;14.98;;
39874;SDS011;25547;52.530;13.194;2023-01-23T09:31:04;26.30;;;12.65;;
39874;SDS011;25547;52.530;13.194;2023-01-23T09:33:31;29.08;;;14.95;;
39874;SDS011;25547;52.530;13.194;2023-01-23T09:36:01;29.77;;;15.07;;
39874;SDS011;25547;52.530;13.194;2023-01-23T09:38:28;29.02;;;14.18;;
39874;SDS011;25547;52.530;13.194;2023-01-23T09:40:55;26.48;;;12.73;;
39874;SDS011;25547;52.530;13.194;2023-01-23T09:46:03;30.33;;;14.50;;
39874;SDS011;25547;52.530;13.194;2023-01-23T09:48:46;33.72;;;16.05;;
39874;SDS011;25547;52.530;13.194;2023-01-23T09:56:52;25.25;;;13.10;;
39874;SDS011;25547;52.530;13.194;2023-01-23T10:01:53;26.85;;;13.00;;
39874;SDS011;25547;52.530;13.194;2023-01-23T10:04:19;32.03;;;13.32;;
39874;SDS011;25547;52.530;13.194;2023-01-23T10:15:36;23.67;;;12.43;;
39874;SDS011;25547;52.530;13.194;2023-01-23T10:20:49;26.48;;;12.48;;
39874;SDS011;25547;52.530;13.194;2023-01-23T10:23:23;26.30;;;12.05;;
39874;SDS011;25547;52.530;13.194;2023-01-23T10:25:54;28.80;;;12.35;;
39874;SDS011;25547;52.530;13.194;2023-01-23T10:28:33;28.77;;;13.20;;
39874;SDS011;25547;52.530;13.194;2023-01-23T10:31:05;30.20;;;12.80;;
39874;SDS011;25547;52.530;13.194;2023-01-23T10:33:50;25.63;;;12.45;;
39874;SDS011;25547;52.530;13.194;2023-01-23T10:36:54;24.27;;;13.48;;
39874;SDS011;25547;52.530;13.194;2023-01-23T10:39:40;25.35;;;12.63;;
39874;SDS011;25547;52.530;13.194;2023-01-23T10:42:21;21.17;;;10.52;;
39874;SDS011;25547;52.530;13.194;2023-01-23T10:44:48;28.03;;;11.47;;
39874;SDS011;25547;52.530;13.194;2023-01-23T10:47:17;33.17;;;14.10;;
39874;SDS011;25547;52.530;13.194;2023-01-23T10:49:50;21.70;;;11.15;;
39874;SDS011;25547;52.530;13.194;2023-01-23T10:54:57;20.90;;;9.60;;
39874;SDS011;25547;52.530;13.194;2023-01-23T10:57:26;30.35;;;13.52;;
39874;SDS011;25547;52.530;13.194;2023-01-23T11:00:09;23.00;;;12.57;;
39874;SDS011;25547;52.530;13.194;2023-01-23T11:08:27;23.98;;;13.60;;
39874;SDS011;25547;52.530;13.194;2023-01-23T11:13:39;27.80;;;12.82;;
39874;SDS011;25547;52.530;13.194;2023-01-23T11:16:07;22.65;;;11.38;;
39874;SDS011;25547;52.530;13.194;2023-01-23T11:18:39;28.30;;;10.88;;
39874;SDS011;25547;52.530;13.194;2023-01-23T11:21:17;23.75;;;12.27;;
39874;SDS011;25547;52.530;13.194;2023-01-23T11:23:50;20.83;;;9.90;;
39874;SDS011;25547;52.530;13.194;2023-01-23T11:26:41;22.75;;;11.25;;
39874;SDS011;25547;52.530;13.194;2023-01-23T11:29:41;24.42;;;12.50;;
39874;SDS011;25547;52.530;13.194;2023-01-23T11:32:17;21.33;;;10.90;;
39874;SDS011;25547;52.530;13.194;2023-01-23T11:34:48;21.33;;;9.75;;
39874;SDS011;25547;52.530;13.194;2023-01-23T11:37:21;23.35;;;11.13;;
39874;SDS011;25547;52.530;13.194;2023-01-23T11:40:00;21.75;;;10.20;;
39874;SDS011;25547;52.530;13.194;2023-01-23T11:42:29;23.42;;;11.65;;
39874;SDS011;25547;52.530;13.194;2023-01-23T11:44:57;21.85;;;10.48;;
39874;SDS011;25547;52.530;13.194;2023-01-23T12:11:18;23.10;;;10.85;;
39874;SDS011;25547;52.530;13.194;2023-01-23T12:13:57;25.38;;;12.05;;
39874;SDS011;25547;52.530;13.194;2023-01-23T12:19:43;26.00;;;11.73;;
39874;SDS011;25547;52.530;13.194;2023-01-23T12:27:45;18.77;;;9.93;;
39874;SDS011;25547;52.530;13.194;2023-01-23T12:38:44;22.77;;;11.73;;
39874;SDS011;25547;52.530;13.194;2023-01-23T12:41:25;32.00;;;16.23;;
39874;SDS011;25547;52.530;13.194;2023-01-23T12:46:33;22.80;;;11.73;;
39874;SDS011;25547;52.530;13.194;2023-01-23T12:51:46;21.55;;;12.38;;
39874;SDS011;25547;52.530;13.194;2023-01-23T12:54:22;17.77;;;10.23;;
39874;SDS011;25547;52.530;13.194;2023-01-23T12:56:55;22.20;;;10.80;;
39874;SDS011;25547;52.530;13.194;2023-01-23T13:02:33;23.23;;;9.98;;
39874;SDS011;25547;52.530;13.194;2023-01-23T13:05:27;20.35;;;9.50;;
39874;SDS011;25547;52.530;13.194;2023-01-23T13:08:30;19.20;;;9.90;;
39874;SDS011;25547;52.530;13.194;2023-01-23T13:11:17;19.08;;;8.45;;
39874;SDS011;25547;52.530;13.194;2023-01-23T13:14:16;15.85;;;7.85;;
39874;SDS011;25547;52.530;13.194;2023-01-23T13:16:48;19.45;;;9.63;;
39874;SDS011;25547;52.530;13.194;2023-01-23T13:19:27;18.35;;;9.02;;
39874;SDS011;25547;52.530;13.194;2023-01-23T13:22:34;17.90;;;8.13;;
39874;SDS011;25547;52.530;13.194;2023-01-23T13:25:10;15.95;;;7.75;;
39874;SDS011;25547;52.530;13.194;2023-01-23T13:27:43;15.63;;;7.93;;
39874;SDS011;25547;52.530;13.194;2023-01-23T13:32:57;15.73;;;8.50;;
39874;SDS011;25547;52.530;13.194;2023-01-23T13:52:23;18.48;;;7.25;;
39874;SDS011;25547;52.530;13.194;2023-01-23T13:58:12;20.55;;;7.80;;
39874;SDS011;25547;52.530;13.194;2023-01-23T14:00:41;23.65;;;10.27;;
39874;SDS011;25547;52.530;13.194;2023-01-23T14:03:32;15.88;;;6.63;;
39874;SDS011;25547;52.530;13.194;2023-01-23T14:06:17;16.48;;;6.47;;
39874;SDS011;25547;52.530;13.194;2023-01-23T14:08:46;20.05;;;8.15;;
39874;SDS011;25547;52.530;13.194;2023-01-23T14:11:14;15.23;;;6.18;;
39874;SDS011;25547;52.530;13.194;2023-01-23T14:16:13;16.15;;;7.95;;
39874;SDS011;25547;52.530;13.194;2023-01-23T14:21:31;11.85;;;6.15;;
39874;SDS011;25547;52.530;13.194;2023-01-23T14:24:00;12.43;;;5.15;;
39874;SDS011;25547;52.530;13.194;2023-01-23T14:26:30;18.57;;;8.00;;
39874;SDS011;25547;52.530;13.194;2023-01-23T14:28:59;17.40;;;9.02;;
39874;SDS011;25547;52.530;13.194;2023-01-23T14:31:41;13.68;;;7.30;;
39874;SDS011;25547;52.530;13.194;2023-01-23T14:34:16;15.05;;;7.97;;
39874;SDS011;25547;52.530;13.194;2023-01-23T14:36:44;13.82;;;6.85;;
39874;SDS011;25547;52.530;13.194;2023-01-23T14:39:17;12.95;;;6.53;;
39874;SDS011;25547;52.530;13.194;2023-01-23T14:41:46;13.70;;;6.97;;
39874;SDS011;25547;52.530;13.194;2023-01-23T14:44:16;14.93;;;7.38;;
39874;SDS011;25547;52.530;13.194;2023-01-23T14:46:52;13.52;;;7.20;;
39874;SDS011;25547;52.530;13.194;2023-01-23T14:49:22;19.52;;;8.35;;
39874;SDS011;25547;52.530;13.194;2023-01-23T14:51:53;15.48;;;6.63;;
39874;SDS011;25547;52.530;13.194;2023-01-23T14:54:23;14.23;;;5.75;;
39874;SDS011;25547;52.530;13.194;2023-01-23T14:56:49;16.52;;;5.63;;
39874;SDS011;25547;52.530;13.194;2023-01-23T15:01:52;14.90;;;7.45;;
39874;SDS011;25547;52.530;13.194;2023-01-23T15:04:25;11.93;;;5.18;;
39874;SDS011;25547;52.530;13.194;2023-01-23T15:06:55;19.35;;;6.55;;
39874;SDS011;25547;52.530;13.194;2023-01-23T15:09:35;13.85;;;6.93;;
39874;SDS011;25547;52.530;13.194;2023-01-23T15:12:14;16.58;;;7.38;;
39874;SDS011;25547;52.530;13.194;2023-01-23T15:14:43;13.57;;;6.75;;
39874;SDS011;25547;52.530;13.194;2023-01-23T15:17:17;15.43;;;6.43;;
39874;SDS011;25547;52.530;13.194;2023-01-23T15:19:52;12.68;;;5.45;;
39874;SDS011;25547;52.530;13.194;2023-01-23T15:22:29;17.38;;;6.05;;
39874;SDS011;25547;52.530;13.194;2023-01-23T15:25:15;14.35;;;6.32;;
39874;SDS011;25547;52.530;13.194;2023-01-23T15:27:55;19.88;;;7.45;;
39874;SDS011;25547;52.530;13.194;2023-01-23T15:33:21;13.90;;;7.05;;
39874;SDS011;25547;52.530;13.194;2023-01-23T15:35:59;13.40;;;7.20;;
39874;SDS011;25547;52.530;13.194;2023-01-23T15:38:26;13.93;;;6.47;;
39874;SDS011;25547;52.530;13.194;2023-01-23T15:40:55;15.15;;;6.30;;
39874;SDS011;25547;52.530;13.194;2023-01-23T15:43:21;14.02;;;7.05;;
39874;SDS011;25547;52.530;13.194;2023-01-23T15:45:52;12.48;;;6.15;;
39874;SDS011;25547;52.530;13.194;2023-01-23T15:48:17;15.23;;;7.28;;
39874;SDS011;25547;52.530;13.194;2023-01-23T15:50:43;19.08;;;7.30;;
39874;SDS011;25547;52.530;13.194;2023-01-23T15:53:09;13.73;;;6.70;;
39874;SDS011;25547;52.530;13.194;2023-01-23T15:55:37;11.75;;;7.22;;
39874;SDS011;25547;52.530;13.194;2023-01-23T15:58:03;12.55;;;6.22;;
39874;SDS011;25547;52.530;13.194;2023-01-23T16:00:33;20.15;;;6.60;;
39874;SDS011;25547;52.530;13.194;2023-01-23T16:02:59;12.95;;;6.35;;
39874;SDS011;25547;52.530;13.194;2023-01-23T16:05:26;13.60;;;6.53;;
39874;SDS011;25547;52.530;13.194;2023-01-23T16:07:56;13.98;;;6.45;;
39874;SDS011;25547;52.530;13.194;2023-01-23T16:10:28;12.30;;;6.00;;
39874;SDS011;25547;52.530;13.194;2023-01-23T16:13:01;14.25;;;6.65;;
39874;SDS011;25547;52.530;13.194;2023-01-23T16:15:29;16.30;;;6.78;;
39874;SDS011;25547;52.530;13.194;2023-01-23T16:17:59;11.32;;;6.22;;
39874;SDS011;25547;52.530;13.194;2023-01-23T16:20:30;12.57;;;7.32;;
39874;SDS011;25547;52.530;13.194;2023-01-23T16:23:09;13.68;;;6.53;;
39874;SDS011;25547;52.530;13.194;2023-01-23T16:25:42;12.48;;;7.00;;
39874;SDS011;25547;52.530;13.194;2023-01-23T16:30:41;11.50;;;5.88;;
39874;SDS011;25547;52.530;13.194;2023-01-23T16:33:09;15.00;;;6.50;;
39874;SDS011;25547;52.530;13.194;2023-01-23T16:35:38;15.52;;;7.07;;
39874;SDS011;25547;52.530;13.194;2023-01-23T16:38:05;13.50;;;7.32;;
39874;SDS011;25547;52.530;13.194;2023-01-23T16:40:31;12.35;;;6.65;;
39874;SDS011;25547;52.530;13.194;2023-01-23T16:42:58;14.27;;;6.32;;